Terminal Aerodrome Forecast
Issued by NWS

Home | Current Version | Previous Version | Text Only | Print | Product List | Glossary On
Versions: 1 2 3 4 5 6 7 8 9 10 11 12 13 14
000
FTUS41 KPHI 270500
TAFMIV
TAF
KMIV 270520Z 2706/2806 00000KT P6SM SCT250
     FM271700 23005KT P6SM SCT250
     FM280000 VRB02KT P6SM BKN200=

USA.gov is the U.S. government's official web portal to all federal, state and local government web resources and services.